Sydenham, Canada
Current Conditions -  °F | °C
As of 11:00 AM on Sunday 25 Jan 2015 (Local Time) from CYVV Reporting Station
Snow Showers Snow Showers  
Wind Chill: -8°   Ceiling: 2000
Heat Index: 10°   Visibility: 3mi
Dew Point:   Wind: 18mph
Humidity: 73%   Direction: 50°NE
Pressure: 29.96"   Gusts: NA
Location:  44.57°N, 80.8°W
Report Text: CYVV 251600Z 05016KT 3SM -SHSN BKN020 BKN250 M12/M16 A2996 RMK SC6CI1 SLP162
Loading
Personal Weather Stations






























Interactive Weather Map New forecast layout! Learn more

10-Day Weather Forecast

Advertisements
Track Severe Weather on mobile